sensor_id;sensor_type;location;lat;lon;timestamp;temperature;humidity
20750;DHT22;10535;50.664;4.564;2024-02-23T00:02:15;6.10;99.90
20750;DHT22;10535;50.664;4.564;2024-02-23T00:04:41;6.00;99.90
20750;DHT22;10535;50.664;4.564;2024-02-23T00:07:07;5.90;99.90
20750;DHT22;10535;50.664;4.564;2024-02-23T00:09:33;5.80;99.90
20750;DHT22;10535;50.664;4.564;2024-02-23T00:11:59;5.80;99.90
20750;DHT22;10535;50.664;4.564;2024-02-23T00:14:24;5.80;99.90
20750;DHT22;10535;50.664;4.564;2024-02-23T00:16:50;5.70;99.90
20750;DHT22;10535;50.664;4.564;2024-02-23T00:19:16;5.70;99.90
20750;DHT22;10535;50.664;4.564;2024-02-23T00:21:44;5.80;99.90
20750;DHT22;10535;50.664;4.564;2024-02-23T00:24:13;5.80;99.90
20750;DHT22;10535;50.664;4.564;2024-02-23T00:26:38;5.90;99.90
20750;DHT22;10535;50.664;4.564;2024-02-23T00:29:04;5.90;99.90
20750;DHT22;10535;50.664;4.564;2024-02-23T00:31:29;5.90;99.90
20750;DHT22;10535;50.664;4.564;2024-02-23T00:33:55;5.90;99.90
20750;DHT22;10535;50.664;4.564;2024-02-23T00:36:21;5.90;99.90
20750;DHT22;10535;50.664;4.564;2024-02-23T00:38:46;5.80;99.90
20750;DHT22;10535;50.664;4.564;2024-02-23T00:41:12;5.70;99.90
20750;DHT22;10535;50.664;4.564;2024-02-23T00:43:41;5.80;99.90
20750;DHT22;10535;50.664;4.564;2024-02-23T00:46:08;5.70;99.90
20750;DHT22;10535;50.664;4.564;2024-02-23T00:48:34;6.00;99.90
20750;DHT22;10535;50.664;4.564;2024-02-23T00:51:01;5.90;99.90
20750;DHT22;10535;50.664;4.564;2024-02-23T00:53:28;6.00;99.90
20750;DHT22;10535;50.664;4.564;2024-02-23T00:55:54;5.90;99.90
20750;DHT22;10535;50.664;4.564;2024-02-23T00:58:19;6.00;99.90
20750;DHT22;10535;50.664;4.564;2024-02-23T01:00:45;6.10;99.90
20750;DHT22;10535;50.664;4.564;2024-02-23T01:03:11;6.20;99.90
20750;DHT22;10535;50.664;4.564;2024-02-23T01:05:36;6.00;99.90
20750;DHT22;10535;50.664;4.564;2024-02-23T01:08:03;6.10;99.90
20750;DHT22;10535;50.664;4.564;2024-02-23T01:10:29;6.00;99.90
20750;DHT22;10535;50.664;4.564;2024-02-23T01:12:55;6.10;99.90
20750;DHT22;10535;50.664;4.564;2024-02-23T01:15:20;6.10;99.90
20750;DHT22;10535;50.664;4.564;2024-02-23T01:17:46;6.20;99.90
20750;DHT22;10535;50.664;4.564;2024-02-23T01:20:12;6.10;99.90
20750;DHT22;10535;50.664;4.564;2024-02-23T01:22:37;5.90;99.90
20750;DHT22;10535;50.664;4.564;2024-02-23T01:25:04;5.90;99.90
20750;DHT22;10535;50.664;4.564;2024-02-23T01:27:29;5.70;99.90
20750;DHT22;10535;50.664;4.564;2024-02-23T01:29:55;5.80;99.90
20750;DHT22;10535;50.664;4.564;2024-02-23T01:32:22;5.80;99.90
20750;DHT22;10535;50.664;4.564;2024-02-23T01:34:48;5.90;99.90
20750;DHT22;10535;50.664;4.564;2024-02-23T01:37:13;5.90;99.90
20750;DHT22;10535;50.664;4.564;2024-02-23T01:39:39;5.90;99.90
20750;DHT22;10535;50.664;4.564;2024-02-23T01:42:05;5.90;99.90
20750;DHT22;10535;50.664;4.564;2024-02-23T01:44:30;6.10;99.90
20750;DHT22;10535;50.664;4.564;2024-02-23T01:46:56;6.00;99.90
20750;DHT22;10535;50.664;4.564;2024-02-23T01:49:22;5.90;99.90
20750;DHT22;10535;50.664;4.564;2024-02-23T01:51:48;5.90;99.90
20750;DHT22;10535;50.664;4.564;2024-02-23T01:54:15;6.00;99.90
20750;DHT22;10535;50.664;4.564;2024-02-23T01:56:40;5.90;99.90
20750;DHT22;10535;50.664;4.564;2024-02-23T01:59:06;5.90;99.90
20750;DHT22;10535;50.664;4.564;2024-02-23T02:01:33;5.90;99.90
20750;DHT22;10535;50.664;4.564;2024-02-23T02:03:59;6.00;99.90
20750;DHT22;10535;50.664;4.564;2024-02-23T02:06:24;6.10;99.90
20750;DHT22;10535;50.664;4.564;2024-02-23T02:08:50;6.10;99.90
20750;DHT22;10535;50.664;4.564;2024-02-23T02:11:16;6.10;99.90
20750;DHT22;10535;50.664;4.564;2024-02-23T02:13:42;6.20;99.90
20750;DHT22;10535;50.664;4.564;2024-02-23T02:16:07;6.10;99.90
20750;DHT22;10535;50.664;4.564;2024-02-23T02:18:33;6.10;99.90
20750;DHT22;10535;50.664;4.564;2024-02-23T02:20:59;6.30;99.90
20750;DHT22;10535;50.664;4.564;2024-02-23T02:23:25;6.10;99.90
20750;DHT22;10535;50.664;4.564;2024-02-23T02:25:58;6.10;99.90
20750;DHT22;10535;50.664;4.564;2024-02-23T02:28:24;6.10;99.90
20750;DHT22;10535;50.664;4.564;2024-02-23T02:30:51;6.00;99.90
20750;DHT22;10535;50.664;4.564;2024-02-23T02:33:18;6.10;99.90
20750;DHT22;10535;50.664;4.564;2024-02-23T02:35:44;6.10;99.90
20750;DHT22;10535;50.664;4.564;2024-02-23T02:38:11;6.10;99.90
20750;DHT22;10535;50.664;4.564;2024-02-23T02:40:37;5.90;99.90
20750;DHT22;10535;50.664;4.564;2024-02-23T02:43:03;6.10;99.90
20750;DHT22;10535;50.664;4.564;2024-02-23T02:45:28;6.10;99.90
20750;DHT22;10535;50.664;4.564;2024-02-23T02:47:54;6.10;99.90
20750;DHT22;10535;50.664;4.564;2024-02-23T02:50:20;6.30;99.90
20750;DHT22;10535;50.664;4.564;2024-02-23T02:52:46;6.20;99.90
20750;DHT22;10535;50.664;4.564;2024-02-23T02:55:11;6.20;99.90
20750;DHT22;10535;50.664;4.564;2024-02-23T02:57:37;6.30;99.90
20750;DHT22;10535;50.664;4.564;2024-02-23T03:00:04;6.50;99.90
20750;DHT22;10535;50.664;4.564;2024-02-23T03:02:34;6.40;99.90
20750;DHT22;10535;50.664;4.564;2024-02-23T03:05:00;6.30;99.90
20750;DHT22;10535;50.664;4.564;2024-02-23T03:07:26;6.30;99.90
20750;DHT22;10535;50.664;4.564;2024-02-23T03:09:51;6.30;99.90
20750;DHT22;10535;50.664;4.564;2024-02-23T03:12:17;6.40;99.90
20750;DHT22;10535;50.664;4.564;2024-02-23T03:14:44;6.30;99.90
20750;DHT22;10535;50.664;4.564;2024-02-23T03:17:09;6.10;99.90
20750;DHT22;10535;50.664;4.564;2024-02-23T03:19:36;6.10;99.90
20750;DHT22;10535;50.664;4.564;2024-02-23T03:22:02;6.10;99.90
20750;DHT22;10535;50.664;4.564;2024-02-23T03:24:27;6.10;99.90
20750;DHT22;10535;50.664;4.564;2024-02-23T03:26:53;5.90;99.90
20750;DHT22;10535;50.664;4.564;2024-02-23T03:29:19;5.90;99.90
20750;DHT22;10535;50.664;4.564;2024-02-23T03:31:44;5.90;99.90
20750;DHT22;10535;50.664;4.564;2024-02-23T03:34:10;5.90;99.90
20750;DHT22;10535;50.664;4.564;2024-02-23T03:36:36;6.00;99.90
20750;DHT22;10535;50.664;4.564;2024-02-23T03:39:02;6.00;99.90
20750;DHT22;10535;50.664;4.564;2024-02-23T03:41:28;6.10;99.90
20750;DHT22;10535;50.664;4.564;2024-02-23T03:43:53;6.10;99.90
20750;DHT22;10535;50.664;4.564;2024-02-23T03:46:19;6.00;99.90
20750;DHT22;10535;50.664;4.564;2024-02-23T03:48:45;6.00;99.90
20750;DHT22;10535;50.664;4.564;2024-02-23T03:51:11;5.90;99.90
20750;DHT22;10535;50.664;4.564;2024-02-23T03:53:36;6.00;99.90
20750;DHT22;10535;50.664;4.564;2024-02-23T03:56:02;6.10;99.90
20750;DHT22;10535;50.664;4.564;2024-02-23T03:58:28;6.10;99.90
20750;DHT22;10535;50.664;4.564;2024-02-23T04:00:54;6.20;99.90
20750;DHT22;10535;50.664;4.564;2024-02-23T04:03:20;6.20;99.90
20750;DHT22;10535;50.664;4.564;2024-02-23T04:05:45;6.30;99.90
20750;DHT22;10535;50.664;4.564;2024-02-23T04:08:11;6.20;99.90
20750;DHT22;10535;50.664;4.564;2024-02-23T04:10:37;6.30;99.90
20750;DHT22;10535;50.664;4.564;2024-02-23T04:13:02;6.30;99.90
20750;DHT22;10535;50.664;4.564;2024-02-23T04:15:29;6.20;99.90
20750;DHT22;10535;50.664;4.564;2024-02-23T04:17:58;6.30;99.90
20750;DHT22;10535;50.664;4.564;2024-02-23T04:20:24;6.40;99.90
20750;DHT22;10535;50.664;4.564;2024-02-23T04:22:49;6.40;99.90
20750;DHT22;10535;50.664;4.564;2024-02-23T04:25:15;6.40;99.90
20750;DHT22;10535;50.664;4.564;2024-02-23T04:27:40;6.30;99.90
20750;DHT22;10535;50.664;4.564;2024-02-23T04:30:08;6.40;99.90
20750;DHT22;10535;50.664;4.564;2024-02-23T04:32:34;6.50;99.90
20750;DHT22;10535;50.664;4.564;2024-02-23T04:35:00;6.50;99.90
20750;DHT22;10535;50.664;4.564;2024-02-23T04:37:25;6.50;99.90
20750;DHT22;10535;50.664;4.564;2024-02-23T04:39:51;6.40;99.90
20750;DHT22;10535;50.664;4.564;2024-02-23T04:42:16;6.40;99.90
20750;DHT22;10535;50.664;4.564;2024-02-23T04:44:42;6.50;99.90
20750;DHT22;10535;50.664;4.564;2024-02-23T04:47:08;6.50;99.90
20750;DHT22;10535;50.664;4.564;2024-02-23T04:49:34;6.60;99.90
20750;DHT22;10535;50.664;4.564;2024-02-23T04:52:00;6.50;99.90
20750;DHT22;10535;50.664;4.564;2024-02-23T04:54:25;6.50;99.90
20750;DHT22;10535;50.664;4.564;2024-02-23T04:56:51;6.40;99.90
20750;DHT22;10535;50.664;4.564;2024-02-23T04:59:16;6.50;99.90
20750;DHT22;10535;50.664;4.564;2024-02-23T05:01:42;6.60;99.90
20750;DHT22;10535;50.664;4.564;2024-02-23T05:04:08;6.70;99.90
20750;DHT22;10535;50.664;4.564;2024-02-23T05:06:33;6.40;99.90
20750;DHT22;10535;50.664;4.564;2024-02-23T05:08:59;6.40;99.90
20750;DHT22;10535;50.664;4.564;2024-02-23T05:11:25;6.60;99.90
20750;DHT22;10535;50.664;4.564;2024-02-23T05:13:50;6.40;99.90
20750;DHT22;10535;50.664;4.564;2024-02-23T05:16:16;6.50;99.90
20750;DHT22;10535;50.664;4.564;2024-02-23T05:18:43;6.50;99.90
20750;DHT22;10535;50.664;4.564;2024-02-23T05:21:09;6.60;99.90
20750;DHT22;10535;50.664;4.564;2024-02-23T05:23:35;6.60;99.90
20750;DHT22;10535;50.664;4.564;2024-02-23T05:26:01;6.70;99.90
20750;DHT22;10535;50.664;4.564;2024-02-23T05:28:27;6.60;99.90
20750;DHT22;10535;50.664;4.564;2024-02-23T05:30:54;6.60;99.90
20750;DHT22;10535;50.664;4.564;2024-02-23T05:33:19;6.50;99.90
20750;DHT22;10535;50.664;4.564;2024-02-23T05:35:48;6.40;99.90
20750;DHT22;10535;50.664;4.564;2024-02-23T05:38:17;6.40;99.90
20750;DHT22;10535;50.664;4.564;2024-02-23T05:40:43;6.40;99.90
20750;DHT22;10535;50.664;4.564;2024-02-23T05:43:09;6.40;99.90
20750;DHT22;10535;50.664;4.564;2024-02-23T05:45:35;6.40;99.90
20750;DHT22;10535;50.664;4.564;2024-02-23T05:48:02;6.30;99.90
20750;DHT22;10535;50.664;4.564;2024-02-23T05:50:28;6.40;99.90
20750;DHT22;10535;50.664;4.564;2024-02-23T05:52:53;6.40;99.90
20750;DHT22;10535;50.664;4.564;2024-02-23T05:55:19;6.40;99.90
20750;DHT22;10535;50.664;4.564;2024-02-23T05:57:45;6.50;99.90
20750;DHT22;10535;50.664;4.564;2024-02-23T06:00:11;6.50;99.90
20750;DHT22;10535;50.664;4.564;2024-02-23T06:02:38;6.50;99.90
20750;DHT22;10535;50.664;4.564;2024-02-23T06:05:05;6.50;99.90
20750;DHT22;10535;50.664;4.564;2024-02-23T06:07:33;6.60;99.90
20750;DHT22;10535;50.664;4.564;2024-02-23T06:10:00;6.50;99.90
20750;DHT22;10535;50.664;4.564;2024-02-23T06:12:26;6.50;99.90
20750;DHT22;10535;50.664;4.564;2024-02-23T06:14:52;6.40;99.90
20750;DHT22;10535;50.664;4.564;2024-02-23T06:17:18;6.70;99.90
20750;DHT22;10535;50.664;4.564;2024-02-23T06:19:43;6.60;99.90
20750;DHT22;10535;50.664;4.564;2024-02-23T06:22:09;6.50;99.90
20750;DHT22;10535;50.664;4.564;2024-02-23T06:24:38;6.60;99.90
20750;DHT22;10535;50.664;4.564;2024-02-23T06:27:03;6.50;99.90
20750;DHT22;10535;50.664;4.564;2024-02-23T06:29:29;6.50;99.90
20750;DHT22;10535;50.664;4.564;2024-02-23T06:31:55;6.50;99.90
20750;DHT22;10535;50.664;4.564;2024-02-23T06:34:21;6.50;99.90
20750;DHT22;10535;50.664;4.564;2024-02-23T06:36:47;6.50;99.90
20750;DHT22;10535;50.664;4.564;2024-02-23T06:39:13;6.50;99.90
20750;DHT22;10535;50.664;4.564;2024-02-23T06:41:39;6.60;99.90
20750;DHT22;10535;50.664;4.564;2024-02-23T06:44:05;6.60;99.90
20750;DHT22;10535;50.664;4.564;2024-02-23T06:46:30;6.70;99.90
20750;DHT22;10535;50.664;4.564;2024-02-23T06:48:56;6.80;99.90
20750;DHT22;10535;50.664;4.564;2024-02-23T06:51:22;6.80;99.90
20750;DHT22;10535;50.664;4.564;2024-02-23T06:53:48;6.70;99.90
20750;DHT22;10535;50.664;4.564;2024-02-23T06:56:13;6.70;99.90
20750;DHT22;10535;50.664;4.564;2024-02-23T06:58:40;6.80;99.90
20750;DHT22;10535;50.664;4.564;2024-02-23T07:01:05;6.80;99.90
20750;DHT22;10535;50.664;4.564;2024-02-23T07:03:35;6.90;99.90
20750;DHT22;10535;50.664;4.564;2024-02-23T07:06:00;6.90;99.90
20750;DHT22;10535;50.664;4.564;2024-02-23T07:08:26;6.90;99.90
20750;DHT22;10535;50.664;4.564;2024-02-23T07:10:52;7.00;99.90
20750;DHT22;10535;50.664;4.564;2024-02-23T07:13:17;6.90;99.90
20750;DHT22;10535;50.664;4.564;2024-02-23T07:15:44;6.90;99.90
20750;DHT22;10535;50.664;4.564;2024-02-23T07:18:10;6.80;99.90
20750;DHT22;10535;50.664;4.564;2024-02-23T07:20:36;6.80;99.90
20750;DHT22;10535;50.664;4.564;2024-02-23T07:23:02;6.80;99.90
20750;DHT22;10535;50.664;4.564;2024-02-23T07:25:28;6.70;99.90
20750;DHT22;10535;50.664;4.564;2024-02-23T07:27:53;6.70;99.90
20750;DHT22;10535;50.664;4.564;2024-02-23T07:30:19;6.80;99.90
20750;DHT22;10535;50.664;4.564;2024-02-23T07:32:46;6.80;99.90
20750;DHT22;10535;50.664;4.564;2024-02-23T07:35:12;6.90;99.90
20750;DHT22;10535;50.664;4.564;2024-02-23T07:37:37;6.90;99.90
20750;DHT22;10535;50.664;4.564;2024-02-23T07:40:03;7.00;99.90
20750;DHT22;10535;50.664;4.564;2024-02-23T07:42:30;6.90;99.90
20750;DHT22;10535;50.664;4.564;2024-02-23T07:44:56;7.00;99.90
20750;DHT22;10535;50.664;4.564;2024-02-23T07:47:21;7.00;99.90
20750;DHT22;10535;50.664;4.564;2024-02-23T07:49:47;7.10;99.90
20750;DHT22;10535;50.664;4.564;2024-02-23T07:52:13;7.10;99.90
20750;DHT22;10535;50.664;4.564;2024-02-23T07:54:38;7.20;99.90
20750;DHT22;10535;50.664;4.564;2024-02-23T07:57:05;7.20;99.90
20750;DHT22;10535;50.664;4.564;2024-02-23T07:59:31;7.20;99.90
20750;DHT22;10535;50.664;4.564;2024-02-23T08:01:57;7.20;99.90
20750;DHT22;10535;50.664;4.564;2024-02-23T08:04:22;7.30;99.90
20750;DHT22;10535;50.664;4.564;2024-02-23T08:06:49;7.20;99.90
20750;DHT22;10535;50.664;4.564;2024-02-23T08:09:14;7.20;99.90
20750;DHT22;10535;50.664;4.564;2024-02-23T08:11:40;7.30;99.90
20750;DHT22;10535;50.664;4.564;2024-02-23T08:14:06;7.30;99.90
20750;DHT22;10535;50.664;4.564;2024-02-23T08:16:32;7.30;99.90
20750;DHT22;10535;50.664;4.564;2024-02-23T08:18:58;7.20;99.90
20750;DHT22;10535;50.664;4.564;2024-02-23T08:21:25;7.10;99.90
20750;DHT22;10535;50.664;4.564;2024-02-23T08:23:51;6.90;99.90
20750;DHT22;10535;50.664;4.564;2024-02-23T08:26:17;6.80;99.90
20750;DHT22;10535;50.664;4.564;2024-02-23T08:28:43;6.70;99.90
20750;DHT22;10535;50.664;4.564;2024-02-23T08:31:08;6.70;99.90
20750;DHT22;10535;50.664;4.564;2024-02-23T08:33:34;6.70;99.90
20750;DHT22;10535;50.664;4.564;2024-02-23T08:36:01;6.70;99.90
20750;DHT22;10535;50.664;4.564;2024-02-23T08:38:48;6.60;99.90
20750;DHT22;10535;50.664;4.564;2024-02-23T08:41:17;6.70;99.90
20750;DHT22;10535;50.664;4.564;2024-02-23T08:43:44;6.70;99.90
20750;DHT22;10535;50.664;4.564;2024-02-23T08:46:10;6.70;99.90
20750;DHT22;10535;50.664;4.564;2024-02-23T08:48:36;6.70;99.90
20750;DHT22;10535;50.664;4.564;2024-02-23T08:51:02;6.70;99.90
20750;DHT22;10535;50.664;4.564;2024-02-23T08:53:27;6.80;99.90
20750;DHT22;10535;50.664;4.564;2024-02-23T08:55:55;7.10;99.90
20750;DHT22;10535;50.664;4.564;2024-02-23T08:58:22;7.30;99.90
20750;DHT22;10535;50.664;4.564;2024-02-23T09:00:48;7.30;99.90
20750;DHT22;10535;50.664;4.564;2024-02-23T09:03:14;7.30;99.90
20750;DHT22;10535;50.664;4.564;2024-02-23T09:05:40;7.10;99.90
20750;DHT22;10535;50.664;4.564;2024-02-23T09:08:06;7.00;99.90
20750;DHT22;10535;50.664;4.564;2024-02-23T09:10:32;7.00;99.90
20750;DHT22;10535;50.664;4.564;2024-02-23T09:12:58;7.00;99.90
20750;DHT22;10535;50.664;4.564;2024-02-23T09:15:23;7.00;99.90
20750;DHT22;10535;50.664;4.564;2024-02-23T09:17:49;7.00;99.90
20750;DHT22;10535;50.664;4.564;2024-02-23T09:20:16;6.90;99.90
20750;DHT22;10535;50.664;4.564;2024-02-23T09:22:41;6.90;99.90
20750;DHT22;10535;50.664;4.564;2024-02-23T09:25:07;7.00;99.90
20750;DHT22;10535;50.664;4.564;2024-02-23T09:27:33;7.00;99.90
20750;DHT22;10535;50.664;4.564;2024-02-23T09:30:02;7.10;99.90
20750;DHT22;10535;50.664;4.564;2024-02-23T09:32:27;7.10;99.90
20750;DHT22;10535;50.664;4.564;2024-02-23T09:34:53;7.20;99.90
20750;DHT22;10535;50.664;4.564;2024-02-23T09:37:18;7.00;99.90
20750;DHT22;10535;50.664;4.564;2024-02-23T09:39:44;7.00;99.90
20750;DHT22;10535;50.664;4.564;2024-02-23T09:42:10;7.10;99.90
20750;DHT22;10535;50.664;4.564;2024-02-23T09:44:39;7.20;99.90
20750;DHT22;10535;50.664;4.564;2024-02-23T09:47:07;7.30;99.90
20750;DHT22;10535;50.664;4.564;2024-02-23T09:49:39;7.50;99.90
20750;DHT22;10535;50.664;4.564;2024-02-23T09:52:08;7.60;99.90
20750;DHT22;10535;50.664;4.564;2024-02-23T09:54:37;7.70;99.90
20750;DHT22;10535;50.664;4.564;2024-02-23T09:57:09;7.60;99.90
20750;DHT22;10535;50.664;4.564;2024-02-23T09:59:36;7.60;99.90
20750;DHT22;10535;50.664;4.564;2024-02-23T10:02:09;7.50;99.90
20750;DHT22;10535;50.664;4.564;2024-02-23T10:04:36;7.60;99.90
20750;DHT22;10535;50.664;4.564;2024-02-23T10:07:02;7.60;99.90
20750;DHT22;10535;50.664;4.564;2024-02-23T10:09:30;7.70;99.90
20750;DHT22;10535;50.664;4.564;2024-02-23T10:11:55;7.80;99.90
20750;DHT22;10535;50.664;4.564;2024-02-23T10:14:21;7.80;99.90
20750;DHT22;10535;50.664;4.564;2024-02-23T10:16:48;7.90;99.90
20750;DHT22;10535;50.664;4.564;2024-02-23T10:19:19;8.00;99.90
20750;DHT22;10535;50.664;4.564;2024-02-23T10:21:57;8.10;99.90
20750;DHT22;10535;50.664;4.564;2024-02-23T10:24:31;8.20;99.90
20750;DHT22;10535;50.664;4.564;2024-02-23T10:27:00;8.50;99.90
20750;DHT22;10535;50.664;4.564;2024-02-23T10:29:35;8.50;99.90
20750;DHT22;10535;50.664;4.564;2024-02-23T10:32:01;8.40;99.90
20750;DHT22;10535;50.664;4.564;2024-02-23T10:34:29;8.40;99.90
20750;DHT22;10535;50.664;4.564;2024-02-23T10:36:56;8.60;99.90
20750;DHT22;10535;50.664;4.564;2024-02-23T10:39:24;8.70;99.90
20750;DHT22;10535;50.664;4.564;2024-02-23T10:41:57;8.70;99.90
20750;DHT22;10535;50.664;4.564;2024-02-23T10:44:28;8.50;99.90
20750;DHT22;10535;50.664;4.564;2024-02-23T10:46:55;8.40;99.90
20750;DHT22;10535;50.664;4.564;2024-02-23T10:49:23;8.30;99.90
20750;DHT22;10535;50.664;4.564;2024-02-23T10:51:52;8.40;99.90
20750;DHT22;10535;50.664;4.564;2024-02-23T10:54:19;8.40;99.90
20750;DHT22;10535;50.664;4.564;2024-02-23T10:56:52;8.50;99.90
20750;DHT22;10535;50.664;4.564;2024-02-23T10:59:18;8.60;99.90
20750;DHT22;10535;50.664;4.564;2024-02-23T11:01:52;8.70;99.90
20750;DHT22;10535;50.664;4.564;2024-02-23T11:04:20;8.80;99.90
20750;DHT22;10535;50.664;4.564;2024-02-23T11:06:55;8.90;99.90
20750;DHT22;10535;50.664;4.564;2024-02-23T11:09:31;9.00;99.90
20750;DHT22;10535;50.664;4.564;2024-02-23T11:11:58;9.10;99.90
20750;DHT22;10535;50.664;4.564;2024-02-23T11:14:39;9.40;99.90
20750;DHT22;10535;50.664;4.564;2024-02-23T11:17:06;9.70;99.90
20750;DHT22;10535;50.664;4.564;2024-02-23T11:19:36;9.80;99.90
20750;DHT22;10535;50.664;4.564;2024-02-23T11:22:03;9.90;99.90
20750;DHT22;10535;50.664;4.564;2024-02-23T11:24:30;9.80;99.90
20750;DHT22;10535;50.664;4.564;2024-02-23T11:26:59;9.80;99.90
20750;DHT22;10535;50.664;4.564;2024-02-23T11:29:29;9.90;99.90
20750;DHT22;10535;50.664;4.564;2024-02-23T11:31:55;9.90;99.90
20750;DHT22;10535;50.664;4.564;2024-02-23T11:34:29;10.10;99.90
20750;DHT22;10535;50.664;4.564;2024-02-23T11:36:55;10.00;99.90
20750;DHT22;10535;50.664;4.564;2024-02-23T11:39:22;10.20;99.90
20750;DHT22;10535;50.664;4.564;2024-02-23T11:42:07;10.50;99.90
20750;DHT22;10535;50.664;4.564;2024-02-23T11:44:34;10.40;99.90
20750;DHT22;10535;50.664;4.564;2024-02-23T11:47:00;10.00;99.90
20750;DHT22;10535;50.664;4.564;2024-02-23T11:49:29;10.20;99.90
20750;DHT22;10535;50.664;4.564;2024-02-23T11:51:55;10.30;99.90
20750;DHT22;10535;50.664;4.564;2024-02-23T11:54:22;10.30;99.90
20750;DHT22;10535;50.664;4.564;2024-02-23T11:56:48;10.10;99.90
20750;DHT22;10535;50.664;4.564;2024-02-23T11:59:15;10.10;99.90
20750;DHT22;10535;50.664;4.564;2024-02-23T12:01:41;10.20;99.90
20750;DHT22;10535;50.664;4.564;2024-02-23T12:04:07;9.90;99.90
20750;DHT22;10535;50.664;4.564;2024-02-23T12:06:33;9.80;99.90
20750;DHT22;10535;50.664;4.564;2024-02-23T12:09:00;9.90;99.90
20750;DHT22;10535;50.664;4.564;2024-02-23T12:11:27;9.50;99.90
20750;DHT22;10535;50.664;4.564;2024-02-23T12:13:53;9.50;99.90
20750;DHT22;10535;50.664;4.564;2024-02-23T12:16:20;9.60;99.90
20750;DHT22;10535;50.664;4.564;2024-02-23T12:18:53;9.70;99.90
20750;DHT22;10535;50.664;4.564;2024-02-23T12:21:20;9.80;99.90
20750;DHT22;10535;50.664;4.564;2024-02-23T12:23:48;10.10;99.90
20750;DHT22;10535;50.664;4.564;2024-02-23T12:26:16;10.10;99.90
20750;DHT22;10535;50.664;4.564;2024-02-23T12:28:42;10.00;99.90
20750;DHT22;10535;50.664;4.564;2024-02-23T12:31:08;9.80;99.90
20750;DHT22;10535;50.664;4.564;2024-02-23T12:33:35;9.90;99.90
20750;DHT22;10535;50.664;4.564;2024-02-23T12:36:02;9.90;99.90
20750;DHT22;10535;50.664;4.564;2024-02-23T12:38:29;9.80;99.90
20750;DHT22;10535;50.664;4.564;2024-02-23T12:40:55;9.80;99.90
20750;DHT22;10535;50.664;4.564;2024-02-23T12:43:21;9.90;99.90
20750;DHT22;10535;50.664;4.564;2024-02-23T12:45:52;9.80;99.90
20750;DHT22;10535;50.664;4.564;2024-02-23T12:48:18;9.80;99.90
20750;DHT22;10535;50.664;4.564;2024-02-23T12:50:45;9.80;99.90
20750;DHT22;10535;50.664;4.564;2024-02-23T12:56:02;10.00;99.90
20750;DHT22;10535;50.664;4.564;2024-02-23T12:58:29;10.10;99.90
20750;DHT22;10535;50.664;4.564;2024-02-23T13:00:55;10.20;99.90
20750;DHT22;10535;50.664;4.564;2024-02-23T13:03:21;10.40;99.90
20750;DHT22;10535;50.664;4.564;2024-02-23T13:05:47;10.40;99.90
20750;DHT22;10535;50.664;4.564;2024-02-23T13:08:13;10.10;99.90
20750;DHT22;10535;50.664;4.564;2024-02-23T13:10:39;9.90;99.90
20750;DHT22;10535;50.664;4.564;2024-02-23T13:13:04;9.70;99.90
20750;DHT22;10535;50.664;4.564;2024-02-23T13:15:30;9.60;99.90
20750;DHT22;10535;50.664;4.564;2024-02-23T13:17:55;9.50;99.90
20750;DHT22;10535;50.664;4.564;2024-02-23T13:20:22;9.50;99.90
20750;DHT22;10535;50.664;4.564;2024-02-23T13:22:48;9.70;99.90
20750;DHT22;10535;50.664;4.564;2024-02-23T13:25:15;9.80;99.90
20750;DHT22;10535;50.664;4.564;2024-02-23T13:27:40;10.00;99.90
20750;DHT22;10535;50.664;4.564;2024-02-23T13:30:06;10.00;99.90
20750;DHT22;10535;50.664;4.564;2024-02-23T13:32:32;10.00;99.90
20750;DHT22;10535;50.664;4.564;2024-02-23T13:34:58;10.00;99.90
20750;DHT22;10535;50.664;4.564;2024-02-23T13:37:23;10.10;99.90
20750;DHT22;10535;50.664;4.564;2024-02-23T13:39:49;10.20;99.90
20750;DHT22;10535;50.664;4.564;2024-02-23T13:42:15;10.30;99.90
20750;DHT22;10535;50.664;4.564;2024-02-23T13:44:40;10.30;99.90
20750;DHT22;10535;50.664;4.564;2024-02-23T13:47:06;10.30;99.90
20750;DHT22;10535;50.664;4.564;2024-02-23T13:49:32;10.30;99.90
20750;DHT22;10535;50.664;4.564;2024-02-23T13:51:58;10.40;99.90
20750;DHT22;10535;50.664;4.564;2024-02-23T13:54:23;10.50;99.90
20750;DHT22;10535;50.664;4.564;2024-02-23T13:56:49;10.60;99.90
20750;DHT22;10535;50.664;4.564;2024-02-23T13:59:15;10.50;99.90
20750;DHT22;10535;50.664;4.564;2024-02-23T14:01:41;10.60;99.90
20750;DHT22;10535;50.664;4.564;2024-02-23T14:04:07;10.60;99.90
20750;DHT22;10535;50.664;4.564;2024-02-23T14:06:33;10.50;99.90
20750;DHT22;10535;50.664;4.564;2024-02-23T14:08:59;10.60;99.90
20750;DHT22;10535;50.664;4.564;2024-02-23T14:11:25;10.50;99.90
20750;DHT22;10535;50.664;4.564;2024-02-23T14:13:50;10.60;99.90
20750;DHT22;10535;50.664;4.564;2024-02-23T14:16:16;10.40;99.90
20750;DHT22;10535;50.664;4.564;2024-02-23T14:18:42;10.40;99.90
20750;DHT22;10535;50.664;4.564;2024-02-23T14:21:10;10.30;99.90
20750;DHT22;10535;50.664;4.564;2024-02-23T14:23:36;10.30;99.90
20750;DHT22;10535;50.664;4.564;2024-02-23T14:26:03;10.30;99.90
20750;DHT22;10535;50.664;4.564;2024-02-23T14:28:29;10.30;99.90
20750;DHT22;10535;50.664;4.564;2024-02-23T14:30:54;10.40;99.90
20750;DHT22;10535;50.664;4.564;2024-02-23T14:33:20;10.40;99.90
20750;DHT22;10535;50.664;4.564;2024-02-23T14:35:47;10.20;99.90
20750;DHT22;10535;50.664;4.564;2024-02-23T14:38:12;10.10;99.90
20750;DHT22;10535;50.664;4.564;2024-02-23T14:40:38;9.90;99.90
20750;DHT22;10535;50.664;4.564;2024-02-23T14:43:05;9.90;99.90
20750;DHT22;10535;50.664;4.564;2024-02-23T14:45:30;9.80;99.90
20750;DHT22;10535;50.664;4.564;2024-02-23T14:47:56;9.80;99.90
20750;DHT22;10535;50.664;4.564;2024-02-23T14:50:23;9.90;99.90
20750;DHT22;10535;50.664;4.564;2024-02-23T14:52:50;9.90;99.90
20750;DHT22;10535;50.664;4.564;2024-02-23T14:55:15;9.90;99.90
20750;DHT22;10535;50.664;4.564;2024-02-23T14:57:41;9.90;99.90
20750;DHT22;10535;50.664;4.564;2024-02-23T15:00:07;9.90;99.90
20750;DHT22;10535;50.664;4.564;2024-02-23T15:02:33;10.00;99.90
20750;DHT22;10535;50.664;4.564;2024-02-23T15:04:59;9.90;99.90
20750;DHT22;10535;50.664;4.564;2024-02-23T15:07:24;9.90;99.90
20750;DHT22;10535;50.664;4.564;2024-02-23T15:09:50;9.80;99.90
20750;DHT22;10535;50.664;4.564;2024-02-23T15:12:16;9.80;99.90
20750;DHT22;10535;50.664;4.564;2024-02-23T15:14:41;9.80;99.90
20750;DHT22;10535;50.664;4.564;2024-02-23T15:17:07;9.70;99.90
20750;DHT22;10535;50.664;4.564;2024-02-23T15:19:33;9.60;99.90
20750;DHT22;10535;50.664;4.564;2024-02-23T15:21:58;9.60;99.90
20750;DHT22;10535;50.664;4.564;2024-02-23T15:24:24;9.70;99.90
20750;DHT22;10535;50.664;4.564;2024-02-23T15:26:50;9.60;99.90
20750;DHT22;10535;50.664;4.564;2024-02-23T15:29:17;9.60;99.90
20750;DHT22;10535;50.664;4.564;2024-02-23T15:31:43;9.70;99.90
20750;DHT22;10535;50.664;4.564;2024-02-23T15:34:09;9.80;99.90
20750;DHT22;10535;50.664;4.564;2024-02-23T15:36:35;9.70;99.90
20750;DHT22;10535;50.664;4.564;2024-02-23T15:39:01;9.50;99.90
20750;DHT22;10535;50.664;4.564;2024-02-23T15:41:34;9.40;99.90
20750;DHT22;10535;50.664;4.564;2024-02-23T15:44:02;9.40;99.90